Highland-University Park's Hourly Summary for Monday, March 13, 2017
Hour Temp
(f)
RH
(%)
Solar Rad.
(MJ/m2)
Rainfall
(in)
Wind
(mph)
3/13/2017 12:00 AM 49 74 0 0 1.84
3/13/2017 1:00 AM 49 76 0 0 1.08
3/13/2017 2:00 AM 49 80 0 0 0.36
3/13/2017 3:00 AM 49 81 0 0 1.05
3/13/2017 4:00 AM 49 82 0 0 1.75
3/13/2017 5:00 AM 49 85 0 0.02 1.37
3/13/2017 6:00 AM 48 94 0 0.02 0.69
3/13/2017 7:00 AM 48 95 0 0 0.61
3/13/2017 8:00 AM 48 94 0 0 0.36
3/13/2017 9:00 AM 48 93 0.07 0 0.19
3/13/2017 10:00 AM 49 88 0.21 0 0.31
3/13/2017 11:00 AM 53 68 1.12 0 2.43
3/13/2017 12:00 PM 56 59 1.71 0 3.39
3/13/2017 1:00 PM 57 60 1.46 0 3.35
3/13/2017 2:00 PM 58 49 2.34 0 3.49
3/13/2017 3:00 PM 61 43 2.84 0 3.93
3/13/2017 4:00 PM 64 34 2.63 0 4.52
3/13/2017 5:00 PM 64 30 2.12 0 4.71
3/13/2017 6:00 PM 63 29 1.34 0 4.84
3/13/2017 7:00 PM 60 28 0.57 0 4.73
3/13/2017 8:00 PM 55 28 0.03 0 3.98
3/13/2017 9:00 PM 52 30 0 0 2.77
3/13/2017 10:00 PM 50 31 0 0 2.53
3/13/2017 11:00 PM 49 33 0 0 2.23
Data Summary 53 61 16.44 0.04 2.35